Terminal Aerodrome Forecast
Issued by NWS Melbourne, FL

Home | Current Version | Previous Version | Text Only | Print | Product List | Glossary On
Versions: 1 2 3 4 5 6 7 8 9 10 11 12 13 14 15 16 17
000
FTUS42 KMLB 051139
TAFMLB
TAF
KMLB 051139Z 0512/0612 31003KT P6SM FEW040 SCT200
     FM051300 VRB04KT P6SM VCTS SCT040CB BKN060
      TEMPO 0514/0517 3SM TSRA BKN040CB BKN080
     FM051800 06008KT P6SM VCSH SCT040 BKN100
     FM060200 04005KT P6SM FEW040 BKN250
     FM060400 05002KT P6SM SCT050 SCT250=

USA.gov is the U.S. government's official web portal to all federal, state and local government web resources and services.